createdAt,value
2023-01-27T00:04:33.944Z,85.58
2023-01-27T00:09:36.522Z,85.68
2023-01-27T00:14:39.107Z,85.38
2023-01-27T00:19:44.773Z,85.53
2023-01-27T00:24:47.322Z,85.25
2023-01-27T00:29:49.977Z,84.81
2023-01-27T00:34:52.507Z,86.06
2023-01-27T00:39:55.122Z,85.61
2023-01-27T00:45:16.063Z,86.41
2023-01-27T00:50:19.727Z,85.73
2023-01-27T00:55:22.318Z,85.88
2023-01-27T01:00:24.832Z,86.88
2023-01-27T01:05:27.421Z,86.74
2023-01-27T01:10:30.262Z,86.21
2023-01-27T01:15:36.290Z,85.46
2023-01-27T01:20:41.648Z,85.18
2023-01-27T01:25:53.597Z,85.56
2023-01-27T01:30:56.309Z,87.49
2023-01-27T01:36:10.775Z,87.01
2023-01-27T01:41:19.378Z,86.36
2023-01-27T01:46:23.029Z,87.15
2023-01-27T01:51:28.729Z,87.34
2023-01-27T01:56:37.861Z,87.13
2023-01-27T02:01:40.470Z,87.01
2023-01-27T02:06:50.418Z,86.12
2023-01-27T02:11:53.478Z,86.19
2023-01-27T02:17:15.365Z,86.60
2023-01-27T02:22:27.460Z,86.49
2023-01-27T02:27:30.000Z,86.29
2023-01-27T02:32:34.798Z,85.39
2023-01-27T02:37:38.370Z,85.12
2023-01-27T02:42:40.993Z,86.18
2023-01-27T02:47:43.608Z,87.55
2023-01-27T02:52:46.593Z,87.45
2023-01-27T02:57:49.288Z,87.27
2023-01-27T03:03:05.922Z,87.16
2023-01-27T03:08:08.697Z,88.09
2023-01-27T03:13:11.451Z,86.70
2023-01-27T03:18:18.174Z,86.52
2023-01-27T03:23:20.810Z,87.69
2023-01-27T03:28:27.577Z,86.70
2023-01-27T03:33:48.088Z,86.33
2023-01-27T03:39:21.597Z,85.34
2023-01-27T03:44:42.786Z,86.05
2023-01-27T03:49:45.644Z,85.56
2023-01-27T03:54:48.853Z,85.21
2023-01-27T03:59:51.506Z,85.21
2023-01-27T04:05:16.454Z,85.82
2023-01-27T04:10:19.022Z,85.80
2023-01-27T04:15:21.787Z,87.06
2023-01-27T04:20:24.347Z,88.58
2023-01-27T04:25:26.950Z,88.46
2023-01-27T04:30:29.531Z,88.77
2023-01-27T04:35:38.630Z,88.75
2023-01-27T04:40:42.226Z,89.37
2023-01-27T04:45:45.047Z,88.65
2023-01-27T04:50:48.353Z,88.39
2023-01-27T04:55:51.065Z,88.41
2023-01-27T05:00:53.676Z,88.48
2023-01-27T05:05:56.331Z,88.35
2023-01-27T05:10:58.903Z,87.81
2023-01-27T05:16:09.063Z,87.73
2023-01-27T05:21:17.529Z,87.76
2023-01-27T05:26:25.369Z,87.88
2023-01-27T05:31:31.601Z,89.26
2023-01-27T05:36:34.813Z,90.25
2023-01-27T05:41:37.769Z,89.90
2023-01-27T05:46:42.696Z,89.29
2023-01-27T05:51:45.415Z,89.06
2023-01-27T05:56:48.240Z,88.62
2023-01-27T06:01:50.846Z,88.29
2023-01-27T06:06:54.033Z,88.25
2023-01-27T06:11:59.677Z,88.30
2023-01-27T06:17:02.236Z,88.12
2023-01-27T06:22:10.617Z,87.91
2023-01-27T06:27:13.129Z,87.46
2023-01-27T06:32:18.481Z,87.07
2023-01-27T06:37:21.161Z,86.87
2023-01-27T06:42:25.857Z,86.79
2023-01-27T06:47:31.679Z,86.03
2023-01-27T06:52:34.745Z,86.02
2023-01-27T06:57:47.007Z,85.73
2023-01-27T07:02:51.043Z,85.71
2023-01-27T07:07:53.966Z,85.96
2023-01-27T07:13:10.492Z,86.01
2023-01-27T07:18:15.705Z,86.71
2023-01-27T07:23:22.684Z,86.62
2023-01-27T07:28:25.504Z,84.90
2023-01-27T07:33:28.710Z,85.28
2023-01-27T07:38:31.755Z,83.98
2023-01-27T07:43:34.835Z,84.29
2023-01-27T07:48:42.938Z,83.86
2023-01-27T07:53:45.708Z,85.21
2023-01-27T07:58:48.416Z,84.42
2023-01-27T08:03:51.071Z,83.68
2023-01-27T08:08:53.721Z,83.78
2023-01-27T08:13:56.433Z,83.30
2023-01-27T08:19:01.889Z,83.25
2023-01-27T08:24:04.969Z,82.64
2023-01-27T08:29:07.855Z,82.56
2023-01-27T08:34:10.900Z,81.85
2023-01-27T08:39:14.615Z,82.24
2023-01-27T08:44:23.130Z,82.09
2023-01-27T08:49:27.100Z,81.59
2023-01-27T08:54:29.673Z,81.71
2023-01-27T08:59:32.365Z,81.27
2023-01-27T09:04:41.284Z,80.76
2023-01-27T09:09:49.659Z,80.78
2023-01-27T09:14:54.551Z,79.80
2023-01-27T09:19:57.981Z,80.43
2023-01-27T09:25:01.187Z,80.38
2023-01-27T09:30:07.126Z,80.09
2023-01-27T09:35:10.434Z,79.72
2023-01-27T09:40:36.717Z,80.54
2023-01-27T09:45:59.381Z,80.22
2023-01-27T09:51:13.046Z,79.53
2023-01-27T09:56:21.798Z,79.94
2023-01-27T10:01:44.891Z,79.48
2023-01-27T10:07:15.390Z,80.42
2023-01-27T10:12:42.770Z,79.71
2023-01-27T10:17:54.160Z,79.28
2023-01-27T10:22:59.822Z,79.78
2023-01-27T10:28:12.839Z,80.25
2023-01-27T10:33:28.399Z,79.68
2023-01-27T10:38:56.358Z,79.00
2023-01-27T10:44:23.039Z,80.50
2023-01-27T10:49:36.360Z,80.59
2023-01-27T10:54:44.253Z,80.06
2023-01-27T11:00:46.452Z,80.26
2023-01-27T11:05:44.752Z,79.88
2023-01-27T11:11:11.846Z,79.26
2023-01-27T11:16:20.109Z,79.98
2023-01-27T11:21:28.574Z,80.13
2023-01-27T11:26:46.681Z,81.06
2023-01-27T11:32:10.277Z,80.07
2023-01-27T11:37:30.761Z,79.20
2023-01-27T11:42:37.724Z,80.21
2023-01-27T11:47:43.573Z,80.63
2023-01-27T11:52:49.896Z,81.13
2023-01-27T11:58:02.687Z,80.94
2023-01-27T12:03:17.877Z,81.55
2023-01-27T12:08:47.135Z,81.62
2023-01-27T12:14:13.434Z,81.83
2023-01-27T12:19:25.408Z,81.72
2023-01-27T12:24:31.769Z,80.61
2023-01-27T12:29:44.878Z,80.20
2023-01-27T12:34:52.159Z,80.77
2023-01-27T12:40:00.679Z,81.81
2023-01-27T12:45:23.006Z,81.58
2023-01-27T12:50:25.955Z,82.21
2023-01-27T12:55:34.800Z,82.03
2023-01-27T13:00:37.948Z,81.87
2023-01-27T13:05:43.414Z,82.72
2023-01-27T13:10:56.298Z,81.78
2023-01-27T13:16:04.706Z,81.55
2023-01-27T13:21:15.776Z,82.21
2023-01-27T13:26:24.694Z,82.13
2023-01-27T13:31:43.456Z,83.40
2023-01-27T13:36:53.715Z,83.05
2023-01-27T13:42:11.761Z,82.36
2023-01-27T13:47:47.343Z,82.41
2023-01-27T13:52:54.975Z,83.35
2023-01-27T13:58:16.254Z,83.31
2023-01-27T14:03:42.490Z,83.49
2023-01-27T14:08:57.568Z,83.80
2023-01-27T14:14:23.591Z,83.81
2023-01-27T14:19:44.749Z,83.97
2023-01-27T14:25:00.695Z,83.57
2023-01-27T14:30:27.319Z,84.08
2023-01-27T14:35:57.640Z,83.54
2023-01-27T14:41:34.104Z,83.47
2023-01-27T14:46:56.847Z,83.37
2023-01-27T14:52:42.496Z,84.26
2023-01-27T14:58:03.895Z,83.06
2023-01-27T15:03:09.174Z,83.47
2023-01-27T15:08:24.576Z,83.57
2023-01-27T15:13:52.280Z,84.10
2023-01-27T15:19:30.255Z,84.79
2023-01-27T15:25:12.515Z,84.22
2023-01-27T15:30:21.684Z,84.27
2023-01-27T15:35:34.954Z,84.28
2023-01-27T15:40:55.990Z,83.67
2023-01-27T15:46:20.177Z,83.59
2023-01-27T15:51:24.261Z,83.74
2023-01-27T15:57:06.583Z,84.57
2023-01-27T16:02:17.355Z,84.42
2023-01-27T16:07:32.856Z,85.06
2023-01-27T16:12:45.091Z,84.67
2023-01-27T16:18:07.162Z,84.52
2023-01-27T16:23:19.232Z,84.64
2023-01-27T16:28:27.768Z,84.95
2023-01-27T16:33:44.520Z,84.85
2023-01-27T16:38:49.131Z,84.93
2023-01-27T16:43:57.125Z,84.93
2023-01-27T16:49:11.377Z,85.48
2023-01-27T16:54:22.924Z,85.41
2023-01-27T16:59:28.475Z,84.78
2023-01-27T17:04:32.051Z,85.04
2023-01-27T17:09:41.674Z,85.55
2023-01-27T17:14:46.808Z,84.76
2023-01-27T17:19:52.444Z,83.76
2023-01-27T17:25:01.899Z,83.16
2023-01-27T17:30:19.274Z,82.83
2023-01-27T17:35:21.951Z,84.00
2023-01-27T17:40:24.870Z,83.97
2023-01-27T17:45:34.051Z,83.48
2023-01-27T17:50:39.622Z,84.07
2023-01-27T17:55:42.435Z,83.56
2023-01-27T18:00:47.107Z,83.54
2023-01-27T18:05:53.202Z,83.19
2023-01-27T18:11:13.203Z,83.85
2023-01-27T18:16:21.833Z,83.45
2023-01-27T18:21:27.576Z,84.26
2023-01-27T18:26:32.916Z,84.16
2023-01-27T18:31:44.578Z,84.24
2023-01-27T18:37:02.389Z,84.74
2023-01-27T18:42:15.615Z,84.12
2023-01-27T18:47:18.764Z,83.86
2023-01-27T18:52:22.611Z,84.48
2023-01-27T18:57:25.712Z,84.73
2023-01-27T19:02:28.607Z,85.24
2023-01-27T19:07:33.056Z,85.38
2023-01-27T19:12:36.087Z,85.27
2023-01-27T19:17:39.257Z,85.25
2023-01-27T19:22:42.320Z,85.88
2023-01-27T19:27:51.717Z,85.97
2023-01-27T19:32:55.669Z,85.66
2023-01-27T19:38:03.520Z,86.01
2023-01-27T19:43:06.687Z,85.73
2023-01-27T19:48:18.277Z,86.23
2023-01-27T19:53:20.848Z,86.51
2023-01-27T19:58:27.769Z,86.13
2023-01-27T20:03:31.107Z,86.59
2023-01-27T20:08:33.701Z,86.11
2023-01-27T20:13:36.265Z,87.00
2023-01-27T20:18:42.003Z,87.20
2023-01-27T20:23:44.803Z,86.93
2023-01-27T20:28:47.789Z,87.11
2023-01-27T20:33:50.848Z,86.80
2023-01-27T20:38:55.182Z,87.35
2023-01-27T20:44:00.384Z,86.72
2023-01-27T20:49:03.342Z,87.06
2023-01-27T20:54:06.243Z,86.92
2023-01-27T20:59:08.762Z,87.05
2023-01-27T21:04:11.296Z,87.39
2023-01-27T21:09:13.886Z,87.22
2023-01-27T21:14:16.484Z,88.09
2023-01-27T21:19:19.209Z,87.14
2023-01-27T21:24:23.391Z,87.86
2023-01-27T21:29:26.096Z,87.67
2023-01-27T21:34:28.652Z,88.13
2023-01-27T21:39:31.344Z,88.54
2023-01-27T21:44:52.507Z,87.83
2023-01-27T21:50:01.026Z,88.73
2023-01-27T21:55:09.793Z,89.42
2023-01-27T22:00:15.193Z,88.79
2023-01-27T22:05:18.063Z,88.94
2023-01-27T22:10:26.761Z,89.34
2023-01-27T22:15:29.715Z,89.87
2023-01-27T22:20:32.306Z,89.70
2023-01-27T22:25:34.927Z,89.98
2023-01-27T22:30:37.594Z,91.50
2023-01-27T22:35:40.257Z,90.86
2023-01-27T22:40:42.918Z,91.30
2023-01-27T22:45:45.549Z,91.30
2023-01-27T22:50:48.191Z,92.07
2023-01-27T22:56:01.098Z,91.88
2023-01-27T23:01:13.409Z,92.01
2023-01-27T23:06:16.217Z,92.96
2023-01-27T23:11:18.783Z,92.13
2023-01-27T23:16:23.436Z,91.61
2023-01-27T23:21:28.454Z,91.91
2023-01-27T23:26:31.519Z,92.33
2023-01-27T23:31:34.121Z,93.32
2023-01-27T23:36:36.814Z,94.79
2023-01-27T23:41:39.351Z,95.03
2023-01-27T23:46:43.425Z,94.21
2023-01-27T23:51:46.029Z,95.02
2023-01-27T23:56:48.690Z,95.41
